Aérodrome :
LOGIN :

S'inscrire | Disclaimer

   EN    FR    IT 

 










Légende :    VFR   VFR Marginal   IFR   IFR Intensif   IFR Très Intensif
Visi : 
Plafond : 
>= 8 km
>= 3000ft
5 à 8 km
1000 à 3000 ft
1500m à 5 km
500 à 1000 ft
800 à 1500m
200 à 500 ft
< 800m
< 200 ft
Symboles :   Orages  Brouillard  Fortes neiges  Fortes précipitations  Vent > 20 kt
SIGMETs :   Divers  Orages  Givrage  Turbulence  Onde Orograph.  Cendres Volcan.






- Altitude de l'aérodrome : 398 ft
- Code IATA : JOE


EFJO - Joensuu

DERNIER METAR :
  • 032020Z AUTO 28011KT 9999 -SHSN OVC015 M01/M03 Q0988

METARs EXPIRÉS :
  • 031950Z AUTO 30013KT 9999 -SHSN OVC017 M01/M04 Q0987
  • 031920Z AUTO 29013KT 9999 OVC013 M01/M03 Q0986 REFZRA
  • 031850Z AUTO 28013KT 9999 -SHSN OVC012 M00/M03 Q0986 REFZRA
  • 031820Z AUTO 28010KT 9999 -SHSN OVC006 M00/M02 Q0985 REFZDZ
  • 031750Z AUTO 26009KT 3100 -FZRASN BKN014 M00/M01 Q0984

Prévision TAF périmée.



MET'MAP, la Météo Aéronautique d'un coup d'oeil ! - Copyright ORBIFLY Décembre 2007 - Disclaimer

ORBIFLY MET'MAP TEAM :

Programmation & Développement : Alexandra Zaïnal
Sur une idée originale de : Baudouin d'Aumeries
Assistance à la programmation : Marc-Olivier Méhu
Soutien technique & logistique : Manuel Goepfert

Contact : metmap@orbifly.com




SOURCES & CREDITS :

   NOAA